createdAt,value
2019-04-30T00:01:17.008Z,16.92
2019-04-30T00:03:55.792Z,17.16
2019-04-30T00:06:27.392Z,16.99
2019-04-30T00:08:57.682Z,16.95
2019-04-30T00:11:27.181Z,16.93
2019-04-30T00:13:58.832Z,16.76
2019-04-30T00:16:31.065Z,17.06
2019-04-30T00:19:00.914Z,17.04
2019-04-30T00:21:36.114Z,16.81
2019-04-30T00:24:10.279Z,16.98
2019-04-30T00:26:46.749Z,17.01
2019-04-30T00:29:19.191Z,16.89
2019-04-30T00:31:47.164Z,16.92
2019-04-30T00:34:16.492Z,16.86
2019-04-30T00:36:46.020Z,16.78
2019-04-30T00:39:16.801Z,16.82
2019-04-30T00:41:47.514Z,16.57
2019-04-30T00:44:19.945Z,16.57
2019-04-30T00:46:49.789Z,16.65
2019-04-30T00:49:23.100Z,16.79
2019-04-30T00:51:56.685Z,16.79
2019-04-30T00:54:30.784Z,16.47
2019-04-30T00:57:04.537Z,16.66
2019-04-30T00:59:31.911Z,16.65
2019-04-30T01:02:12.958Z,16.21
2019-04-30T01:04:45.125Z,16.26
2019-04-30T01:07:15.971Z,16.36
2019-04-30T01:09:49.468Z,16.50
2019-04-30T01:12:17.386Z,16.54
2019-04-30T01:14:49.746Z,16.75
2019-04-30T01:17:21.340Z,16.81
2019-04-30T01:19:54.379Z,16.98
2019-04-30T01:22:28.042Z,16.79
2019-04-30T01:24:54.489Z,17.07
2019-04-30T01:27:28.392Z,16.76
2019-04-30T01:29:59.797Z,16.62
2019-04-30T01:32:29.260Z,17.00
2019-04-30T01:34:59.011Z,17.15
2019-04-30T01:37:32.741Z,17.11
2019-04-30T01:40:03.182Z,17.15
2019-04-30T01:42:34.062Z,17.15
2019-04-30T01:45:06.452Z,17.34
2019-04-30T01:47:35.823Z,17.09
2019-04-30T01:50:06.899Z,17.12
2019-04-30T01:52:59.085Z,17.43
2019-04-30T01:55:31.277Z,17.38
2019-04-30T01:58:03.236Z,17.39
2019-04-30T02:00:39.164Z,17.43
2019-04-30T02:03:11.264Z,17.73
2019-04-30T02:05:41.864Z,17.74
2019-04-30T02:08:11.121Z,17.60
2019-04-30T02:10:43.407Z,17.57
2019-04-30T02:13:12.786Z,17.59
2019-04-30T02:15:46.004Z,17.69
2019-04-30T02:18:16.724Z,17.69
2019-04-30T02:20:47.119Z,17.75
2019-04-30T02:23:19.406Z,17.69
2019-04-30T02:25:49.731Z,17.62
2019-04-30T02:28:20.322Z,17.63
2019-04-30T02:30:50.868Z,17.57
2019-04-30T02:33:20.478Z,17.37
2019-04-30T02:36:03.880Z,17.52
2019-04-30T02:38:33.158Z,17.76
2019-04-30T02:41:04.878Z,17.87
2019-04-30T02:43:39.736Z,17.89
2019-04-30T02:46:09.670Z,17.76
2019-04-30T02:48:42.587Z,17.72
2019-04-30T02:51:16.011Z,17.61
2019-04-30T02:54:09.975Z,17.63
2019-04-30T02:56:41.013Z,17.85
2019-04-30T02:59:10.565Z,17.76
2019-04-30T03:01:41.030Z,17.53
2019-04-30T03:04:11.553Z,17.71
2019-04-30T03:06:42.108Z,17.73
2019-04-30T03:09:12.455Z,17.58
2019-04-30T03:11:41.858Z,17.45
2019-04-30T03:14:11.253Z,17.45
2019-04-30T03:17:01.641Z,17.23
2019-04-30T03:19:34.759Z,17.36
2019-04-30T03:22:11.856Z,17.42
2019-04-30T03:24:42.950Z,16.98
2019-04-30T03:27:14.192Z,17.02
2019-04-30T03:29:44.633Z,17.12
2019-04-30T03:32:15.039Z,17.06
2019-04-30T03:34:45.714Z,17.05
2019-04-30T03:37:16.589Z,16.85
2019-04-30T03:39:49.177Z,17.13
2019-04-30T03:42:19.859Z,17.10
2019-04-30T03:44:50.736Z,17.24
2019-04-30T03:47:21.042Z,17.27
2019-04-30T03:49:53.310Z,17.30
2019-04-30T03:52:22.825Z,17.32
2019-04-30T03:54:53.642Z,17.05
2019-04-30T03:57:23.004Z,17.14
2019-04-30T03:59:52.549Z,17.02
2019-04-30T04:02:30.563Z,17.14
2019-04-30T04:05:01.647Z,17.32
2019-04-30T04:07:41.292Z,17.41
2019-04-30T04:10:30.247Z,17.41
2019-04-30T04:12:59.827Z,17.03
2019-04-30T04:15:30.175Z,17.19
2019-04-30T04:18:00.577Z,17.37
2019-04-30T04:20:30.987Z,17.48
2019-04-30T04:23:01.389Z,17.47
2019-04-30T04:25:30.729Z,17.57
2019-04-30T04:28:01.254Z,17.66
2019-04-30T04:30:30.746Z,17.91
2019-04-30T04:33:01.274Z,17.94
2019-04-30T04:35:32.301Z,17.99
2019-04-30T04:38:02.773Z,18.08
2019-04-30T04:40:34.322Z,18.01
2019-04-30T04:43:03.728Z,18.09
2019-04-30T04:45:36.174Z,18.26
2019-04-30T04:48:09.438Z,18.47
2019-04-30T04:50:39.970Z,18.18
2019-04-30T04:53:11.599Z,17.94
2019-04-30T04:55:40.764Z,17.99
2019-04-30T04:58:12.925Z,18.09
2019-04-30T05:00:42.476Z,18.45
2019-04-30T05:03:23.889Z,18.35
2019-04-30T05:05:54.357Z,18.29
2019-04-30T05:08:22.840Z,18.46
2019-04-30T05:10:52.186Z,21.39
2019-04-30T05:13:22.540Z,23.92
2019-04-30T05:15:52.948Z,25.02
2019-04-30T05:18:23.354Z,26.64
2019-04-30T05:20:52.778Z,26.70
2019-04-30T05:23:23.121Z,26.97
2019-04-30T05:25:56.554Z,27.78
2019-04-30T05:28:25.959Z,29.06
2019-04-30T05:30:59.360Z,28.99
2019-04-30T05:33:30.610Z,30.57
2019-04-30T05:36:00.996Z,31.66
2019-04-30T05:38:33.386Z,30.62
2019-04-30T05:41:02.807Z,32.10
2019-04-30T05:43:33.361Z,32.63
2019-04-30T05:46:03.770Z,31.77
2019-04-30T05:48:34.736Z,31.80
2019-04-30T05:51:05.206Z,31.15
2019-04-30T05:53:34.608Z,32.08
2019-04-30T05:56:03.973Z,33.69
2019-04-30T05:58:33.417Z,32.40
2019-04-30T06:01:03.807Z,30.91
2019-04-30T06:03:34.307Z,28.57
2019-04-30T06:06:04.926Z,28.29
2019-04-30T06:08:39.330Z,30.74
2019-04-30T06:11:13.566Z,28.90
2019-04-30T06:13:54.433Z,26.66
2019-04-30T06:16:25.466Z,26.73
2019-04-30T06:18:54.971Z,25.90
2019-04-30T06:21:25.447Z,25.06
2019-04-30T06:23:56.363Z,24.04
2019-04-30T06:26:26.765Z,24.86
2019-04-30T06:28:59.297Z,25.19
2019-04-30T06:31:34.913Z,27.78
2019-04-30T06:34:04.556Z,34.11
2019-04-30T06:36:35.276Z,37.59
2019-04-30T06:39:08.815Z,37.63
2019-04-30T06:41:39.514Z,37.36
2019-04-30T06:44:09.749Z,40.51
2019-04-30T06:46:39.883Z,38.61
2019-04-30T06:49:10.968Z,39.78
2019-04-30T06:51:40.640Z,30.02
2019-04-30T06:54:14.379Z,26.98
2019-04-30T06:56:44.792Z,24.38
2019-04-30T06:59:15.212Z,23.54
2019-04-30T07:01:48.854Z,22.71
2019-04-30T07:04:22.373Z,22.71
2019-04-30T07:06:53.316Z,23.41
2019-04-30T07:09:39.742Z,34.23
2019-04-30T07:12:06.105Z,39.62
2019-04-30T07:14:36.527Z,42.75
2019-04-30T07:17:07.053Z,43.61
2019-04-30T07:19:52.533Z,44.81
2019-04-30T07:22:09.180Z,44.86
2019-04-30T07:24:39.520Z,45.53
2019-04-30T07:27:09.370Z,45.66
2019-04-30T07:29:39.796Z,44.03
2019-04-30T07:32:10.305Z,46.18
2019-04-30T07:34:40.709Z,47.22
2019-04-30T07:37:17.388Z,46.44
2019-04-30T07:39:43.214Z,43.53
2019-04-30T07:42:13.599Z,43.34
2019-04-30T07:44:45.991Z,36.02
2019-04-30T07:47:18.918Z,30.36
2019-04-30T07:49:52.929Z,27.62
2019-04-30T07:52:21.642Z,25.20
2019-04-30T07:54:52.111Z,25.59
2019-04-30T07:57:22.514Z,25.55
2019-04-30T07:59:52.915Z,25.45
2019-04-30T08:02:22.294Z,24.65
2019-04-30T08:04:55.877Z,24.26
2019-04-30T08:07:26.258Z,25.55
2019-04-30T08:09:55.741Z,26.04
2019-04-30T08:12:31.944Z,25.94
2019-04-30T08:14:59.478Z,30.63
2019-04-30T08:17:30.145Z,28.97
2019-04-30T08:20:00.556Z,35.08
2019-04-30T08:22:32.204Z,35.08
2019-04-30T08:25:03.784Z,40.58
2019-04-30T08:27:34.730Z,45.50
2019-04-30T08:30:04.272Z,43.70
2019-04-30T08:32:34.663Z,37.20
2019-04-30T08:35:05.184Z,34.53
2019-04-30T08:37:35.506Z,33.22
2019-04-30T08:40:08.530Z,32.85
2019-04-30T08:42:40.517Z,30.41
2019-04-30T08:45:10.148Z,30.22
2019-04-30T08:47:41.185Z,38.67
2019-04-30T08:50:12.131Z,36.57
2019-04-30T08:52:42.608Z,42.19
2019-04-30T08:55:16.995Z,36.03
2019-04-30T08:57:47.200Z,34.35
2019-04-30T09:00:19.657Z,33.54
2019-04-30T09:02:49.396Z,35.36
2019-04-30T09:05:22.990Z,38.24
2019-04-30T09:07:55.193Z,32.85
2019-04-30T09:10:26.219Z,30.21
2019-04-30T09:12:56.641Z,33.07
2019-04-30T09:15:28.924Z,31.97
2019-04-30T09:18:05.916Z,30.60
2019-04-30T09:20:31.473Z,28.98
2019-04-30T09:23:01.886Z,27.51
2019-04-30T09:25:31.293Z,30.46
2019-04-30T09:28:04.382Z,37.04
2019-04-30T09:30:33.835Z,32.68
2019-04-30T09:33:02.779Z,36.88
2019-04-30T09:35:32.298Z,38.53
2019-04-30T09:38:02.070Z,37.61
2019-04-30T09:40:32.691Z,38.78
2019-04-30T09:43:03.149Z,38.74
2019-04-30T09:45:38.485Z,38.29
2019-04-30T09:48:09.456Z,38.11
2019-04-30T09:50:41.680Z,37.29
2019-04-30T09:53:11.464Z,36.39
2019-04-30T09:55:41.251Z,34.94
2019-04-30T09:58:16.937Z,32.94
2019-04-30T10:00:42.995Z,31.48
2019-04-30T10:03:12.864Z,29.52
2019-04-30T10:05:42.480Z,29.89
2019-04-30T10:08:13.018Z,31.25
2019-04-30T10:10:44.918Z,30.32
2019-04-30T10:13:16.884Z,30.25
2019-04-30T10:15:58.521Z,30.11
2019-04-30T10:18:30.349Z,29.03
2019-04-30T10:21:00.918Z,29.17
2019-04-30T10:23:32.593Z,29.03
2019-04-30T10:26:03.336Z,28.62
2019-04-30T10:28:35.724Z,28.16
2019-04-30T10:31:07.595Z,27.61
2019-04-30T10:33:38.659Z,27.02
2019-04-30T10:36:09.440Z,27.02
2019-04-30T10:38:43.507Z,26.61
2019-04-30T10:41:16.004Z,26.37
2019-04-30T10:43:49.240Z,26.37
2019-04-30T10:46:20.053Z,26.64
2019-04-30T10:48:50.458Z,26.59
2019-04-30T10:51:20.866Z,26.68
2019-04-30T10:53:50.903Z,26.47
2019-04-30T10:56:21.361Z,26.47
2019-04-30T10:58:50.764Z,26.81
2019-04-30T11:01:21.346Z,26.87
2019-04-30T11:03:51.954Z,27.18
2019-04-30T11:06:22.473Z,26.99
2019-04-30T11:08:55.165Z,27.24
2019-04-30T11:11:25.570Z,27.00
2019-04-30T11:13:54.946Z,26.94
2019-04-30T11:16:25.335Z,26.90
2019-04-30T11:18:55.917Z,27.12
2019-04-30T11:21:25.744Z,27.12
2019-04-30T11:23:56.567Z,27.16
2019-04-30T11:26:26.677Z,25.68
2019-04-30T11:28:58.089Z,27.17
2019-04-30T11:31:30.711Z,27.41
2019-04-30T11:34:01.075Z,27.47
2019-04-30T11:36:31.435Z,28.40
2019-04-30T11:38:59.910Z,28.46
2019-04-30T11:41:32.867Z,28.46
2019-04-30T11:43:59.635Z,27.45
2019-04-30T11:46:49.536Z,28.01
2019-04-30T11:49:20.350Z,27.99
2019-04-30T11:51:49.721Z,27.72
2019-04-30T11:54:20.225Z,27.78
2019-04-30T11:56:51.536Z,27.57
2019-04-30T11:59:23.254Z,27.83
2019-04-30T12:01:56.601Z,27.82
2019-04-30T12:04:27.065Z,27.68
2019-04-30T12:06:59.038Z,27.54
2019-04-30T12:09:42.021Z,27.64
2019-04-30T12:12:11.487Z,27.48
2019-04-30T12:14:41.033Z,27.32
2019-04-30T12:17:10.414Z,27.56
2019-04-30T12:19:40.673Z,27.94
2019-04-30T12:22:12.854Z,28.26
2019-04-30T12:24:42.263Z,28.09
2019-04-30T12:27:12.621Z,27.51
2019-04-30T12:29:43.094Z,28.17
2019-04-30T12:32:12.639Z,28.67
2019-04-30T12:34:44.986Z,28.71
2019-04-30T12:37:15.498Z,28.07
2019-04-30T12:39:45.909Z,28.14
2019-04-30T12:42:15.308Z,27.70
2019-04-30T12:44:44.686Z,27.67
2019-04-30T12:47:20.034Z,28.04
2019-04-30T12:50:00.927Z,27.89
2019-04-30T12:52:34.539Z,27.75
2019-04-30T12:55:15.491Z,27.71
2019-04-30T12:57:58.312Z,28.36
2019-04-30T13:00:21.631Z,28.84
2019-04-30T13:02:51.217Z,28.67
2019-04-30T13:05:24.844Z,28.94
2019-04-30T13:07:54.739Z,29.43
2019-04-30T13:10:25.066Z,29.37
2019-04-30T13:12:56.414Z,29.53
2019-04-30T13:15:26.096Z,28.90
2019-04-30T13:17:58.421Z,28.59
2019-04-30T13:20:29.421Z,28.29
2019-04-30T13:23:00.000Z,28.86
2019-04-30T13:25:35.407Z,29.44
2019-04-30T13:28:05.927Z,29.11
2019-04-30T13:30:35.319Z,28.78
2019-04-30T13:33:09.517Z,28.08
2019-04-30T13:35:41.411Z,28.53
2019-04-30T13:38:12.500Z,28.43
2019-04-30T13:40:55.060Z,28.71
2019-04-30T13:43:43.447Z,29.16
2019-04-30T13:46:12.810Z,28.22
2019-04-30T13:48:43.314Z,28.83
2019-04-30T13:51:13.714Z,28.45
2019-04-30T13:53:44.770Z,28.85
2019-04-30T13:56:19.996Z,28.52
2019-04-30T13:58:49.027Z,28.28
2019-04-30T14:01:21.409Z,28.12
2019-04-30T14:03:55.213Z,27.87
2019-04-30T14:06:41.155Z,27.31
2019-04-30T14:09:15.069Z,27.34
2019-04-30T14:11:45.370Z,27.52
2019-04-30T14:14:15.787Z,26.89
2019-04-30T14:16:47.667Z,27.21
2019-04-30T14:19:19.560Z,27.04
2019-04-30T14:21:52.108Z,27.02
2019-04-30T14:24:21.519Z,26.70
2019-04-30T14:26:50.421Z,26.77
2019-04-30T14:29:21.080Z,26.77
2019-04-30T14:31:50.644Z,27.04
2019-04-30T14:34:21.003Z,27.08
2019-04-30T14:36:51.515Z,27.01
2019-04-30T14:39:20.542Z,27.40
2019-04-30T14:41:55.341Z,27.42
2019-04-30T14:44:33.216Z,27.42
2019-04-30T14:47:12.373Z,27.10
2019-04-30T14:49:44.120Z,27.56
2019-04-30T14:52:14.172Z,27.56
2019-04-30T14:54:54.062Z,27.84
2019-04-30T14:57:30.269Z,27.61
2019-04-30T15:00:10.183Z,27.34
2019-04-30T15:02:42.152Z,27.33
2019-04-30T15:05:14.545Z,26.75
2019-04-30T15:07:44.113Z,26.74
2019-04-30T15:10:13.897Z,26.63
2019-04-30T15:12:44.299Z,25.79
2019-04-30T15:15:13.883Z,26.37
2019-04-30T15:17:44.378Z,26.04
2019-04-30T15:20:14.064Z,25.94
2019-04-30T15:23:00.961Z,25.76
2019-04-30T15:25:34.589Z,25.89
2019-04-30T15:28:06.576Z,25.78
2019-04-30T15:30:39.170Z,25.55
2019-04-30T15:33:21.956Z,25.11
2019-04-30T15:35:51.313Z,25.50
2019-04-30T15:38:23.407Z,25.11
2019-04-30T15:40:54.062Z,25.07
2019-04-30T15:43:24.923Z,24.90
2019-04-30T15:45:57.323Z,25.06
2019-04-30T15:48:26.966Z,25.15
2019-04-30T15:50:56.638Z,25.07
2019-04-30T15:53:27.133Z,24.91
2019-04-30T15:55:58.712Z,24.92
2019-04-30T15:58:31.288Z,24.70
2019-04-30T16:01:02.005Z,24.98
2019-04-30T16:03:42.229Z,24.87
2019-04-30T16:06:11.806Z,24.72
2019-04-30T16:08:43.885Z,24.60
2019-04-30T16:11:14.970Z,24.56
2019-04-30T16:14:05.477Z,24.36
2019-04-30T16:16:37.548Z,24.22
2019-04-30T16:19:09.162Z,24.21
2019-04-30T16:21:39.737Z,23.98
2019-04-30T16:24:10.021Z,24.07
2019-04-30T16:26:49.005Z,23.96
2019-04-30T16:29:11.677Z,23.66
2019-04-30T16:31:42.718Z,23.96
2019-04-30T16:34:13.136Z,23.92
2019-04-30T16:36:43.747Z,23.60
2019-04-30T16:39:14.449Z,23.82
2019-04-30T16:41:43.966Z,24.12
2019-04-30T16:44:14.415Z,23.88
2019-04-30T16:46:43.881Z,24.04
2019-04-30T16:49:17.103Z,24.41
2019-04-30T16:51:47.614Z,24.68
2019-04-30T16:54:18.648Z,24.52
2019-04-30T16:57:02.867Z,24.43
2019-04-30T16:59:26.040Z,24.12
2019-04-30T17:01:59.925Z,23.97
2019-04-30T17:04:32.079Z,23.83
2019-04-30T17:07:04.357Z,23.97
2019-04-30T17:09:51.004Z,24.10
2019-04-30T17:12:23.136Z,24.30
2019-04-30T17:15:11.283Z,23.97
2019-04-30T17:17:42.350Z,23.80
2019-04-30T17:20:14.737Z,23.48
2019-04-30T17:22:44.136Z,23.37
2019-04-30T17:25:16.165Z,23.42
2019-04-30T17:27:46.664Z,23.09
2019-04-30T17:30:19.413Z,23.05
2019-04-30T17:32:50.122Z,23.00
2019-04-30T17:35:22.059Z,22.97
2019-04-30T17:37:55.808Z,23.04
2019-04-30T17:40:29.171Z,22.96
2019-04-30T17:43:01.318Z,22.73
2019-04-30T17:45:30.833Z,22.68
2019-04-30T17:48:01.188Z,22.65
2019-04-30T17:50:31.611Z,22.69
2019-04-30T17:53:01.106Z,22.34
2019-04-30T17:55:31.674Z,22.34
2019-04-30T17:58:02.498Z,22.04
2019-04-30T18:00:36.559Z,22.19
2019-04-30T18:03:06.555Z,21.75
2019-04-30T18:05:39.025Z,21.75
2019-04-30T18:08:11.013Z,21.38
2019-04-30T18:10:40.943Z,21.49
2019-04-30T18:13:11.514Z,21.54
2019-04-30T18:15:42.031Z,21.34
2019-04-30T18:18:19.746Z,21.01
2019-04-30T18:21:08.995Z,21.05
2019-04-30T18:23:45.134Z,21.06
2019-04-30T18:26:17.189Z,20.86
2019-04-30T18:28:47.679Z,20.80
2019-04-30T18:31:18.710Z,20.42
2019-04-30T18:33:51.496Z,20.33
2019-04-30T18:36:21.029Z,20.16
2019-04-30T18:38:51.717Z,20.23
2019-04-30T18:41:22.160Z,20.00
2019-04-30T18:43:54.033Z,19.90
2019-04-30T18:46:24.500Z,19.92
2019-04-30T18:48:53.907Z,19.98
2019-04-30T18:51:38.499Z,19.85
2019-04-30T18:53:55.507Z,19.79
2019-04-30T18:56:25.838Z,19.77
2019-04-30T18:58:56.415Z,19.63
2019-04-30T19:01:28.784Z,19.59
2019-04-30T19:04:01.182Z,19.73
2019-04-30T19:06:31.494Z,19.52
2019-04-30T19:09:20.187Z,19.46
2019-04-30T19:11:55.151Z,19.50
2019-04-30T19:14:42.516Z,19.48
2019-04-30T19:17:22.454Z,19.40
2019-04-30T19:20:14.131Z,19.22
2019-04-30T19:22:43.602Z,19.08
2019-04-30T19:25:14.046Z,19.00
2019-04-30T19:27:44.510Z,19.07
2019-04-30T19:30:15.125Z,18.99
2019-04-30T19:32:45.453Z,18.87
2019-04-30T19:35:16.076Z,18.93
2019-04-30T19:37:48.774Z,18.88
2019-04-30T19:40:20.308Z,18.74
2019-04-30T19:42:51.342Z,18.69
2019-04-30T19:45:21.736Z,18.65
2019-04-30T19:47:52.357Z,18.81
2019-04-30T19:50:23.809Z,18.67
2019-04-30T19:52:55.832Z,18.72
2019-04-30T19:55:25.291Z,18.58
2019-04-30T19:57:54.708Z,18.58
2019-04-30T20:00:25.680Z,18.54
2019-04-30T20:02:58.077Z,18.39
2019-04-30T20:05:28.719Z,18.30
2019-04-30T20:07:59.463Z,18.22
2019-04-30T20:10:30.525Z,18.15
2019-04-30T20:12:59.862Z,18.23
2019-04-30T20:15:31.567Z,18.17
2019-04-30T20:18:03.275Z,18.04
2019-04-30T20:20:34.139Z,18.02
2019-04-30T20:23:04.609Z,17.92
2019-04-30T20:25:34.012Z,17.90
2019-04-30T20:28:03.351Z,17.91
2019-04-30T20:30:33.736Z,17.84
2019-04-30T20:33:04.148Z,17.81
2019-04-30T20:35:33.521Z,17.79
2019-04-30T20:38:16.803Z,17.73
2019-04-30T20:40:57.789Z,17.62
2019-04-30T20:43:21.429Z,17.57
2019-04-30T20:45:52.067Z,17.54
2019-04-30T20:48:21.448Z,17.54
2019-04-30T20:50:51.811Z,17.47
2019-04-30T20:53:22.320Z,17.44
2019-04-30T20:55:52.782Z,17.41
2019-04-30T20:58:23.135Z,17.36
2019-04-30T21:01:01.094Z,17.29
2019-04-30T21:03:24.046Z,17.18
2019-04-30T21:05:53.455Z,17.15
2019-04-30T21:08:23.919Z,17.14
2019-04-30T21:10:54.231Z,17.11
2019-04-30T21:13:24.625Z,17.08
2019-04-30T21:15:55.144Z,17.03
2019-04-30T21:18:26.397Z,16.95
2019-04-30T21:20:55.779Z,16.80
2019-04-30T21:23:26.143Z,16.83
2019-04-30T21:25:58.853Z,16.73
2019-04-30T21:28:29.740Z,16.73
2019-04-30T21:31:01.907Z,16.70
2019-04-30T21:33:41.217Z,16.73
2019-04-30T21:36:12.174Z,16.56
2019-04-30T21:38:41.570Z,16.48
2019-04-30T21:41:12.259Z,16.50
2019-04-30T21:43:44.642Z,16.50
2019-04-30T21:46:13.956Z,16.50
2019-04-30T21:48:44.507Z,16.43
2019-04-30T21:51:14.913Z,16.44
2019-04-30T21:53:47.117Z,16.42
2019-04-30T21:56:17.501Z,16.40
2019-04-30T21:58:47.803Z,16.39
2019-04-30T22:01:19.895Z,16.37
2019-04-30T22:03:48.925Z,16.28
2019-04-30T22:06:19.571Z,16.36
2019-04-30T22:08:49.260Z,16.16
2019-04-30T22:11:20.057Z,15.97
2019-04-30T22:13:50.757Z,16.07
2019-04-30T22:16:21.282Z,16.15
2019-04-30T22:18:52.716Z,16.16
2019-04-30T22:21:23.123Z,16.11
2019-04-30T22:23:52.524Z,16.03
2019-04-30T22:26:22.004Z,16.01
2019-04-30T22:28:50.793Z,15.98
2019-04-30T22:31:22.960Z,16.00
2019-04-30T22:33:52.378Z,15.96
2019-04-30T22:36:26.089Z,15.85
2019-04-30T22:38:57.006Z,15.82
2019-04-30T22:41:29.634Z,15.77
2019-04-30T22:44:00.113Z,15.67
2019-04-30T22:46:29.513Z,15.65
2019-04-30T22:48:58.984Z,15.70
2019-04-30T22:51:29.349Z,15.65
2019-04-30T22:53:58.755Z,15.61
2019-04-30T22:56:29.113Z,15.51
2019-04-30T22:59:00.666Z,15.51
2019-04-30T23:01:32.745Z,15.48
2019-04-30T23:04:07.434Z,15.31
2019-04-30T23:06:37.846Z,15.31
2019-04-30T23:09:11.084Z,15.28
2019-04-30T23:11:41.679Z,15.17
2019-04-30T23:14:11.150Z,15.19
2019-04-30T23:16:41.655Z,15.17
2019-04-30T23:19:11.957Z,15.03
2019-04-30T23:21:42.360Z,15.08
2019-04-30T23:24:12.768Z,15.02
2019-04-30T23:26:42.132Z,14.95
2019-04-30T23:29:11.426Z,14.83
2019-04-30T23:31:41.789Z,14.89
2019-04-30T23:34:18.087Z,14.83
2019-04-30T23:36:45.001Z,14.78
2019-04-30T23:39:14.466Z,14.85
2019-04-30T23:41:44.060Z,14.68
2019-04-30T23:44:15.810Z,14.67
2019-04-30T23:46:45.214Z,14.66
2019-04-30T23:49:15.576Z,14.59
2019-04-30T23:51:45.972Z,14.65
2019-04-30T23:54:16.389Z,14.62
2019-04-30T23:56:46.864Z,14.60
2019-04-30T23:59:16.215Z,14.49
